WEATHER DATA

YESTERDAY
Time Temp. Dewp. Hum. Wind dir Wind speed Wind gust Bar. 1h Prec. 24h Prec.
00:03 11 10.1 94 0.3 1.4 1025.3 0.0000 0.0000
00:24 11.1 10.3 95 270 0.3 1.4 1025.3 0.0000 0.0000
00:34 11.1 10.3 95 0.3 1.4 1025.1 0.0000 0.0000
00:44 11.2 10.4 95 270 0.3 1.9 1025.3 0.0000 0.0000
01:04 11.3 10.5 95 315 0.8 1.9 1025.2 0.0000 0.0000
01:14 11.4 10.6 95 315 0.3 1.9 1025.1 0.0000 0.0000
01:24 11.4 10.6 95 270 0.8 1.9 1025.2 0.0000 0.0000
01:34 11.5 10.7 95 225 0.8 2.5 1025.1 0.0000 0.0000
01:44 11.6 10.8 95 288 0.8 1.4 1025 0.0000 0.0000
01:54 11.6 10.8 95 315 0.3 1.9 1024.9 0.0000 0.0000
02:04 11.7 10.9 95 270 0.3 1.4 1024.9 0.0000 0.0000
02:15 11.8 11 95 290 0.8 1.4 1024.9 0.0000 0.0000
02:24 11.9 11.1 95 90 0.8 1.9 1025 0.0000 0.0000
02:34 11.9 11.1 95 90 0.3 1.1 1025.1 0.0000 0.0000
02:45 12 11.2 95 90 0.8 1.9 1025.1 0.0000 0.0000
02:55 12.1 11.3 95 90 0.8 2.2 1025.2 0.0000 0.0000
03:04 12.1 11.3 95 77 0.8 1.9 1024.9 0.0000 0.0000
03:14 12.1 11.3 95 225 0.8 1.9 1024.9 0.0000 0.0000
03:25 12.1 11.3 95 123 0.3 1.4 1024.9 0.0000 0.0000
03:35 12.1 11.3 95 180 0.3 1.4 1024.9 0.0000 0.0000
03:44 12.1 11.3 95 90 0.3 1.1 1025 0.0000 0.0000
03:55 12.1 11.3 95 270 0.3 1.9 1025.1 0.0000 0.0000
04:05 12.1 11.3 95 90 0.8 2.5 1025.2 0.0000 0.0000
04:15 12.1 11.3 95 306 0.3 1.9 1025.4 0.0000 0.0000
04:25 12.2 11.4 95 90 0.3 1.1 1025.4 0.0000 0.0000
04:35 12.2 11.4 95 305 0.3 1.4 1025.5 0.0000 0.0000
04:45 12.2 11.4 95 304 0.8 1.9 1025.5 0.0000 0.0000
04:55 12.2 11.4 95 135 0.3 1.4 1025.3 0.0000 0.0000
05:06 12.2 11.4 95 310 0.8 2.2 1025.6 0.0000 0.0000
05:16 12.2 11.4 95 90 0.3 1.4 1025.5 0.0000 0.0000
05:25 12.3 11.5 95 270 0.3 2.2 1025.6 0.0000 0.0000
05:35 12.3 11.5 95 311 0.8 1.9 1025.5 0.0000 0.0000
05:46 12.4 11.6 95 312 0.8 1.9 1025.5 0.0000 0.0000
05:56 12.5 11.7 95 310 0.8 1.9 1025.6 0.0000 0.0000
06:05 12.5 11.7 95 302 0.8 2.2 1025.6 0.0000 0.0000
06:16 12.5 11.7 95 306 0.8 1.4 1025.5 0.0000 0.0000
06:26 12.5 11.7 95 327 0.3 1.9 1025.8 0.0000 0.0000
06:36 12.5 11.7 95 315 0.3 1.4 1025.8 0.0000 0.0000
06:46 12.5 11.7 95 315 0.3 1.4 1025.9 0.0000 0.0000
06:56 12.5 11.7 95 309 0.3 1.1 1026 0.0000 0.0000
07:06 12.5 11.7 95 315 0.8 2.2 1026 0.0000 0.0000
07:16 12.5 11.7 95 301 0.8 1.9 1025.8 0.0000 0.0000
07:27 12.6 11.8 95 304 0.8 2.8 1026 0.0000 0.0000
07:36 12.7 11.9 95 303 1.1 2.8 1026.1 0.0000 0.0000
07:46 12.8 12 95 303 1.1 2.5 1026.2 0.0000 0.0000
07:56 12.9 12.1 95 305 0.8 2.2 1026.3 0.0000 0.0000
08:07 13 12.2 95 312 0.8 2.2 1026.2 0.0000 0.0000
08:16 13.1 12.3 95 309 0.8 2.2 1026.2 0.0000 0.0000
08:26 13.1 12.3 95 315 0.8 2.2 1026.5 0.0000 0.0000
08:37 13.1 12.3 95 303 0.8 2.5 1026.7 0.0000 0.0000
08:47 13.1 12.3 95 315 0.8 2.5 1026.8 0.0000 0.0000
08:57 13.1 12.3 95 308 0.8 2.2 1027.1 0.0000 0.0000
09:06 13.1 12.3 95 302 0.8 1.9 1027 0.0000 0.0000
09:17 13.2 12.4 95 302 0.8 1.9 1027 0.0000 0.0000
09:27 13.3 12.5 95 306 0.8 2.2 1027.3 0.0000 0.0000
09:37 13.4 12.6 95 305 0.8 1.9 1027.4 0.1010 0.1000
09:48 13.5 12.7 95 300 0.8 1.9 1027.5 0.1010 0.1000
09:57 13.5 12.6 94 315 0.3 1.4 1027.4 0.1010 0.1000
10:07 13.5 12.6 94 308 0.3 1.4 1027.4 0.1010 0.1000
10:17 13.6 12.7 94 307 0.8 1.9 1027.7 0.1010 0.1000
10:28 13.6 12.7 94 306 0.8 2.5 1027.8 0.0000 0.1000
10:37 13.6 12.7 94 315 0.8 1.4 1027.9 0.0000 0.1000
10:47 13.6 12.7 94 315 0.3 1.4 1027.9 0.0000 0.1000
10:58 13.6 12.7 94 306 0.3 1.4 1028.1 0.0000 0.1000
11:08 13.6 12.7 94 315 0.3 1.1 1028 0.0000 0.1000
11:18 13.7 12.8 94 298 0.8 2.2 1027.8 0.0000 0.1000
11:27 13.8 12.9 94 270 0.3 1.4 1027.9 0.0000 0.1000
11:38 14 13.1 94 300 0.8 1.9 1028 0.0000 0.1000
11:48 14.2 13.2 94 304 0.8 1.9 1028 0.0000 0.1000
11:58 14.3 13.3 94 297 0.8 2.5 1027.8 0.0000 0.1000
12:09 14.4 13.3 93 299 0.8 2.5 1027.9 0.0000 0.1000
12:18 14.5 13.4 93 300 0.8 1.4 1027.8 0.0000 0.1000
12:28 14.6 13.5 93 297 0.8 1.9 1027.8 0.0000 0.1000
12:38 14.7 13.4 92 302 0.8 2.2 1027.8 0.0000 0.1000
12:49 14.7 13.4 92 306 1.1 2.8 1027.8 0.0000 0.1000
12:58 14.6 13.1 91 305 1.1 2.8 1027.6 0.0000 0.1000
13:08 14.8 13.3 91 299 1.1 2.5 1027.7 0.0000 0.1000
13:19 15.1 13.6 91 300 1.1 2.5 1027.7 0.0000 0.1000
13:29 15.2 13.4 89 300 0.8 2.8 1027.8 0.0000 0.1000
13:39 15.2 13.2 88 311 0.8 2.2 1027.8 0.0000 0.1000
13:48 15.2 13.1 87 305 1.1 2.5 1027.7 0.0000 0.1000
13:59 15.2 13.1 87 300 1.1 2.5 1027.6 0.0000 0.1000
14:09 15.4 13.1 86 302 1.1 3.3 1027.6 0.0000 0.1000
14:19 15.4 12.7 84 295 1.1 2.8 1027.7 0.0000 0.1000
14:29 15.3 12.6 84 302 1.1 2.8 1027.9 0.0000 0.1000
14:39 15.3 12.4 83 304 1.4 3.6 1027.7 0.0000 0.1000
14:49 15.3 12.2 82 301 1.4 3.3 1028 0.0000 0.1000
14:59 15.2 12.2 82 295 0.8 1.9 1027.9 0.0000 0.1000
15:10 15.2 12.2 82 310 0.8 1.9 1028.2 0.0000 0.1000
15:19 15.1 12.1 82 307 0.8 2.8 1028.1 0.0000 0.1000
15:29 15 12 82 305 0.8 1.4 1028.1 0.0000 0.1000
15:40 14.9 11.9 82 315 0.8 1.4 1028.2 0.0000 0.1000
15:50 14.9 11.9 82 315 0.3 1.4 1028.1 0.0000 0.1000
15:59 14.8 11.8 82 321 0.3 1.4 1028.2 0.0000 0.1000
16:09 14.7 11.7 82 306 0.3 1.4 1028.3 0.0000 0.1000
16:20 14.7 11.8 83 309 0.3 1.1 1028.4 0.0000 0.1000
16:30 14.6 11.7 83 315 0.3 1.1 1028.4 0.0000 0.1000
16:40 14.5 11.7 83 311 0.3 1.1 1028.5 0.0000 0.1000
16:50 14.5 11.7 83 315 0.3 1.1 1028.5 0.0000 0.1000
17:00 14.4 11.6 83 90 0.3 0.8 1028.5 0.0000 0.1000
17:10 14.3 11.6 84 90 0.3 1.1 1028.6 0.0000 0.1000
17:20 14.2 11.5 84 330 0.3 1.1 1028.6 0.0000 0.1000
17:30 14.2 11.5 84 315 0.3 1.4 1028.8 0.0000 0.1000
17:40 14.2 11.5 84 90 0.3 0.8 1028.8 0.0000 0.1000
17:50 14.2 11.5 84 344 0.3 1.1 1029 0.0000 0.1000
18:01 14.1 11.4 84 315 0.3 1.4 1029.2 0.0000 0.1000
18:11 14.1 11.4 84 297 1.1 1.9 1029.1 0.0000 0.1000
18:20 14.2 11.5 84 306 0.8 1.9 1029.2 0.0000 0.1000
18:30 14.2 11.5 84 315 0.3 1.1 1029.3 0.0000 0.1000
18:41 14.2 11.5 84 315 0.3 1.1 1029.2 0.0000 0.1000
18:51 14.1 11.4 84 90 0.3 0.8 1029.3 0.0000 0.1000
19:00 14 11.3 84 329 0.3 0.8 1029.6 0.0000 0.1000
19:11 13.9 11.2 84 123 0.3 1.1 1029.4 0.0000 0.1000
19:21 13.9 11.2 84 135 0.3 1.1 1029.6 0.0000 0.1000
19:31 13.8 11.1 84 303 0.3 1.1 1029.6 0.0000 0.1000
19:41 13.8 11.1 84 315 0.3 1.1 1029.7 0.0000 0.1000
19:51 13.8 11.1 84 315 0.3 1.1 1029.8 0.0000 0.1000
20:01 13.7 11 84 11 0.3 0.8 1029.8 0.0000 0.1000
20:11 13.7 11 84 327 0.3 1.1 1029.8 0.0000 0.1000
20:22 13.6 11 84 18 0.3 1.1 1029.8 0.0000 0.1000
20:31 13.5 10.9 84 315 0.3 1.1 1029.8 0.0000 0.1000
20:41 13.4 10.8 84 315 0.3 1.1 1029.9 0.0000 0.1000
20:51 13.4 10.8 84 90 0.3 0.8 1030 0.0000 0.1000
21:02 13.3 10.7 84 315 0.3 1.9 1029.8 0.0000 0.1000
21:11 13.3 10.7 84 323 0.3 0.8 1030 0.0000 0.1000
21:21 13.3 10.7 84 330 0.3 0.8 1029.9 0.0000 0.1000
21:32 13.3 10.7 84 323 0.3 0.8 1030 0.0000 0.1000
21:42 13.3 10.7 84 18 0.3 0.8 1029.9 0.0000 0.1000
21:52 13.2 10.6 84 0 0.3 0.8 1029.8 0.0000 0.1000
22:02 13.2 10.7 85 304 0.3 1.4 1030 0.0000 0.1000
22:12 13.2 10.7 85 315 0.3 0.8 1029.9 0.0000 0.1000
22:22 13.2 10.7 85 315 0.3 1.1 1029.8 0.0000 0.1000
22:32 13.2 10.7 85 326 0.3 1.1 1030.1 0.0000 0.1000
22:42 13.1 10.6 85 348 0.3 0.8 1030.1 0.0000 0.1000
22:52 13.1 10.6 85 331 0.3 1.1 1030 0.0000 0.1000
23:02 13 10.5 85 341 0.3 0.8 1030 0.0000 0.1000
23:12 13 10.5 85 315 0.3 1.1 1030 0.0000 0.1000
23:23 13 10.5 85 336 0.3 0.8 1029.9 0.0000 0.1000
23:32 13.1 10.5 84 315 0.3 1.4 1030 0.0000 0.1000
23:42 13.1 10.5 84 323 0.3 1.1 1029.9 0.0000 0.1000
23:53 13.1 10.5 84 327 0.3 1.1 1030 0.0000

DAY STATISTIC

2020-10-30
TEMPERATURE
AVERAGE
13.4
HIGH
15.4
14:09
LOW
11.0
00:03
PRESSURE
AVERAGE
1027.5
HIGH
1030.1
22:32
LOW
1024.9
01:54
DEWPOINT
AVERAGE
11.7
HIGH
13.6
13:19
LOW
10.1
00:03
HUMIDITY
AVERAGE
90
HIGH
95
00:24
LOW
82
14:49
WIND SPEED
AVERAGE
0.6
HIGH
1.4
14:39
WIND GUST
AVERAGE
1.7
HIGH
3.6
14:39
WIND DIRECTION
PREVAILING
NW
72.3%
N
5.0
NE
0.0
E
9.9
SE
2.8
S
0.7
SW
1.4
W
6.4
NW
72.3
PRECIPITATION
RAIN HOUR
0.1
RAIN DAY
0.1
TEMPERATURE (°C)
LOW
11.0
HIGH
15.4
AVERAGE
13.4
PRESSURE (hpa)
LOW
1024.9
HIGH
1030.1
AVERAGE
1027.5
DEVICE